Pagina principale
METAR-TAF:

METAR-TAF

Aeroporti :

Aeroporto di Roma-Fiumicino

Roma-Fiumicino, Italia

latitudine: 41-48N, longitudine: 012-14E, altezza: 2 m

Osservazione

Il bollettino è stato emesso 26 minuti fa, alle 17:20 UTC
Vento 4 kt da ovest
Temperature 20°C
Umidità 88%
Pressione 1016 hPa
Visibilità 10 km o più
nessuna nube inferiore a 1500 m e nessun cumulonembo

METAR: LIRF 191720Z 28004KT CAVOK 20/18 Q1016 NOSIG

Ora: 19:46 (17:46 UTC)

Previsione

Il bollettino è stato emesso 46 minuti fa, alle 17:00 UTC
Previsione valida dal 19 alle 18 UTC al 20 alle 24 UTC
Vento 5 kt da direzioni variabili
Visibilità 10 km o più
nessuna nube inferiore a 1500 m e nessun cumulonembo
Evoluzione graduale
dal 20 alle 11 UTC al 20 alle 13 UTC
Vento 10 kt da ovest
Evoluzione graduale
dal 20 alle 17 UTC al 20 alle 19 UTC
Vento 5 kt da direzioni variabili

TAF: LIRF 191700Z 1918/2024 VRB05KT CAVOK BECMG 2011/2013 28010KT BECMG 2017/2019 VRB05KT

Osservazioni e previsioni meteorologiche di più di 4000 aeroporti (messaggi METAR e TAF).

Le stazioni disponibili sono rappresentate dai dischi gialli e rossi sulla carta.

Puntare il mouse per vedere il nome della stazione.

Clicca sopra per visualizzare le osservazioni e previsioni meteorologiche.

Per cambiare la mappa : fare clic sui pulsanti verdi con una croce nera per ingrandire, il pulsante verde con un trattino per diminuire, o sulla freccia verde per le mappe adiacenti.


METAR-TAF: